createdAt,value
2018-06-05T00:00:40.714Z,19.60
2018-06-05T00:03:09.165Z,19.17
2018-06-05T00:05:37.642Z,21.53
2018-06-05T00:08:06.649Z,20.30
2018-06-05T00:10:35.025Z,19.13
2018-06-05T00:13:03.497Z,19.73
2018-06-05T00:15:31.849Z,21.03
2018-06-05T00:18:00.213Z,20.63
2018-06-05T00:20:28.558Z,21.37
2018-06-05T00:22:57.805Z,20.57
2018-06-05T00:25:26.146Z,21.20
2018-06-05T00:27:54.588Z,21.23
2018-06-05T00:30:22.974Z,21.03
2018-06-05T00:32:51.337Z,21.03
2018-06-05T00:35:19.685Z,21.13
2018-06-05T00:37:48.856Z,21.63
2018-06-05T00:40:17.198Z,22.60
2018-06-05T00:42:45.781Z,22.17
2018-06-05T00:45:14.097Z,21.87
2018-06-05T00:47:42.454Z,21.93
2018-06-05T00:50:10.805Z,22.20
2018-06-05T00:52:39.170Z,22.07
2018-06-05T00:55:07.509Z,21.80
2018-06-05T00:57:35.853Z,22.50
2018-06-05T01:00:04.266Z,23.00
2018-06-05T01:02:32.633Z,23.57
2018-06-05T01:05:00.994Z,23.07
2018-06-05T01:07:29.473Z,23.47
2018-06-05T01:09:57.855Z,21.73
2018-06-05T01:12:26.212Z,21.73
2018-06-05T01:14:54.601Z,22.17
2018-06-05T01:17:22.969Z,24.33
2018-06-05T01:19:51.459Z,22.23
2018-06-05T01:22:19.830Z,23.30
2018-06-05T01:24:48.939Z,23.07
2018-06-05T01:27:17.299Z,22.73
2018-06-05T01:29:45.658Z,23.50
2018-06-05T01:32:14.081Z,21.53
2018-06-05T01:34:42.529Z,22.50
2018-06-05T01:37:10.994Z,21.53
2018-06-05T01:39:39.352Z,22.50
2018-06-05T01:42:07.701Z,21.67
2018-06-05T01:44:36.046Z,21.67
2018-06-05T01:47:05.165Z,21.40
2018-06-05T01:49:33.537Z,18.67
2018-06-05T01:52:02.649Z,18.43
2018-06-05T01:54:31.020Z,16.37
2018-06-05T01:56:59.413Z,16.37
2018-06-05T01:59:27.767Z,17.80
2018-06-05T02:01:56.956Z,16.10
2018-06-05T02:04:26.096Z,16.60
2018-06-05T02:06:54.479Z,17.33
2018-06-05T02:09:22.832Z,15.80
2018-06-05T02:11:51.240Z,18.20
2018-06-05T02:14:19.726Z,16.43
2018-06-05T02:16:48.131Z,17.60
2018-06-05T02:19:16.505Z,18.87
2018-06-05T02:21:45.394Z,18.63
2018-06-05T02:24:13.841Z,17.53
2018-06-05T02:26:42.195Z,16.87
2018-06-05T02:29:10.607Z,18.00
2018-06-05T02:31:38.978Z,19.23
2018-06-05T02:34:07.680Z,20.07
2018-06-05T02:36:36.056Z,19.43
2018-06-05T02:39:04.410Z,19.33
2018-06-05T02:41:32.829Z,19.17
2018-06-05T02:44:01.177Z,19.60
2018-06-05T02:46:29.586Z,19.03
2018-06-05T02:48:57.946Z,19.13
2018-06-05T02:51:26.285Z,19.63
2018-06-05T02:53:55.537Z,19.97
2018-06-05T02:56:23.898Z,19.97
2018-06-05T02:58:52.279Z,20.03
2018-06-05T03:01:20.617Z,20.40
2018-06-05T03:03:49.740Z,18.93
2018-06-05T03:06:18.721Z,19.13
2018-06-05T03:08:47.084Z,17.80
2018-06-05T03:11:16.238Z,17.77
2018-06-05T03:13:44.592Z,19.63
2018-06-05T03:16:12.977Z,19.83
2018-06-05T03:18:41.352Z,19.57
2018-06-05T03:21:09.851Z,18.80
2018-06-05T03:23:38.231Z,19.07
2018-06-05T03:26:06.612Z,18.47
2018-06-05T03:28:35.018Z,22.63
2018-06-05T03:31:03.489Z,18.77
2018-06-05T03:33:31.841Z,19.13
2018-06-05T03:36:00.237Z,18.43
2018-06-05T03:38:28.585Z,20.10
2018-06-05T03:40:56.953Z,17.97
2018-06-05T03:43:26.100Z,18.87
2018-06-05T03:45:54.577Z,17.37
2018-06-05T03:48:22.941Z,17.73
2018-06-05T03:50:52.115Z,18.07
2018-06-05T03:53:20.529Z,18.10
2018-06-05T03:55:48.851Z,17.07
2018-06-05T03:58:17.969Z,17.10
2018-06-05T04:00:46.321Z,16.93
2018-06-05T04:03:14.685Z,16.57
2018-06-05T04:05:43.134Z,16.07
2018-06-05T04:08:11.515Z,15.57
2018-06-05T04:10:39.856Z,15.80
2018-06-05T04:13:09.301Z,16.10
2018-06-05T04:15:37.626Z,16.17
2018-06-05T04:18:06.766Z,14.60
2018-06-05T04:20:35.145Z,15.67
2018-06-05T04:23:03.503Z,14.90
2018-06-05T04:25:31.920Z,15.87
2018-06-05T04:28:00.275Z,15.10
2018-06-05T04:30:28.633Z,14.50
2018-06-05T04:32:57.760Z,16.40
2018-06-05T04:35:26.093Z,15.93
2018-06-05T04:37:55.225Z,17.60
2018-06-05T04:40:23.606Z,15.87
2018-06-05T04:42:52.067Z,16.30
2018-06-05T04:45:26.085Z,16.63
2018-06-05T04:47:54.457Z,16.03
2018-06-05T04:50:23.590Z,14.17
2018-06-05T04:52:52.002Z,17.73
2018-06-05T04:55:20.360Z,16.63
2018-06-05T04:57:48.713Z,16.03
2018-06-05T05:00:17.082Z,18.17
2018-06-05T05:02:45.439Z,16.23
2018-06-05T05:05:14.574Z,16.93
2018-06-05T05:07:42.989Z,16.87
2018-06-05T05:10:11.345Z,17.27
2018-06-05T05:12:39.694Z,18.93
2018-06-05T05:15:08.070Z,18.67
2018-06-05T05:17:36.420Z,17.43
2018-06-05T05:20:04.781Z,18.97
2018-06-05T05:22:33.141Z,17.73
2018-06-05T05:25:01.499Z,18.73
2018-06-05T05:27:29.893Z,17.90
2018-06-05T05:29:58.280Z,16.13
2018-06-05T05:32:26.617Z,18.43
2018-06-05T05:34:54.985Z,18.43
2018-06-05T05:37:23.381Z,18.37
2018-06-05T05:39:52.505Z,17.57
2018-06-05T05:42:20.853Z,16.70
2018-06-05T05:44:49.242Z,17.97
2018-06-05T05:47:17.599Z,16.57
2018-06-05T05:49:46.710Z,16.43
2018-06-05T05:52:15.842Z,16.63
2018-06-05T05:54:44.199Z,17.10
2018-06-05T05:57:12.562Z,15.77
2018-06-05T05:59:41.026Z,17.73
2018-06-05T06:02:09.395Z,16.47
2018-06-05T06:04:37.825Z,15.50
2018-06-05T06:07:06.233Z,24.57
2018-06-05T06:09:34.590Z,16.47
2018-06-05T06:12:02.963Z,18.07
2018-06-05T06:14:31.557Z,16.13
2018-06-05T06:16:59.926Z,19.57
2018-06-05T06:19:28.269Z,16.47
2018-06-05T06:21:57.403Z,17.93
2018-06-05T06:24:25.757Z,19.47
2018-06-05T06:26:54.876Z,20.47
2018-06-05T06:29:23.380Z,20.57
2018-06-05T06:31:51.705Z,18.63
2018-06-05T06:34:20.853Z,19.27
2018-06-05T06:36:49.218Z,18.57
2018-06-05T06:39:17.570Z,18.47
2018-06-05T06:41:46.678Z,19.40
2018-06-05T06:44:15.026Z,19.90
2018-06-05T06:46:44.140Z,18.70
2018-06-05T06:49:13.288Z,18.20
2018-06-05T06:51:42.523Z,17.57
2018-06-05T06:54:10.884Z,18.73
2018-06-05T06:56:39.218Z,17.47
2018-06-05T06:59:07.712Z,18.80
2018-06-05T07:01:36.100Z,18.13
2018-06-05T07:04:04.513Z,19.00
2018-06-05T07:06:32.860Z,18.93
2018-06-05T07:09:01.237Z,17.83
2018-06-05T07:11:29.597Z,17.23
2018-06-05T07:13:57.972Z,18.50
2018-06-05T07:16:26.301Z,19.10
2018-06-05T07:18:54.657Z,21.10
2018-06-05T07:21:23.186Z,20.60
2018-06-05T07:23:52.376Z,20.47
2018-06-05T07:26:20.743Z,21.27
2018-06-05T07:28:49.114Z,19.87
2018-06-05T07:31:17.474Z,19.57
2018-06-05T07:33:45.833Z,18.50
2018-06-05T07:36:14.271Z,20.93
2018-06-05T07:38:42.718Z,19.77
2018-06-05T07:41:11.177Z,19.80
2018-06-05T07:43:39.564Z,20.60
2018-06-05T07:46:07.908Z,19.33
2018-06-05T07:48:37.022Z,18.70
2018-06-05T07:51:05.365Z,19.33
2018-06-05T07:53:34.487Z,18.67
2018-06-05T07:56:02.892Z,17.73
2018-06-05T07:58:31.256Z,19.90
2018-06-05T08:00:59.711Z,19.43
2018-06-05T08:03:28.821Z,18.83
2018-06-05T08:05:57.165Z,19.40
2018-06-05T08:08:25.543Z,18.87
2018-06-05T08:10:53.988Z,18.07
2018-06-05T08:13:22.361Z,17.77
2018-06-05T08:15:50.745Z,17.83
2018-06-05T08:18:19.127Z,17.67
2018-06-05T08:20:47.478Z,17.27
2018-06-05T08:23:15.833Z,18.63
2018-06-05T08:25:44.186Z,18.30
2018-06-05T08:28:12.590Z,17.80
2018-06-05T08:30:40.937Z,18.10
2018-06-05T08:33:09.397Z,18.37
2018-06-05T08:35:37.762Z,17.37
2018-06-05T08:38:06.123Z,18.93
2018-06-05T08:40:35.237Z,18.60
2018-06-05T08:43:03.595Z,21.70
2018-06-05T08:45:32.002Z,20.60
2018-06-05T08:48:00.336Z,18.27
2018-06-05T08:50:28.714Z,17.73
2018-06-05T08:52:57.070Z,16.93
2018-06-05T08:55:25.472Z,17.47
2018-06-05T08:57:53.910Z,18.10
2018-06-05T09:00:22.266Z,17.83
2018-06-05T09:02:50.670Z,17.80
2018-06-05T09:05:19.072Z,18.13
2018-06-05T09:07:47.389Z,15.97
2018-06-05T09:10:15.743Z,18.53
2018-06-05T09:12:44.096Z,17.00
2018-06-05T09:15:12.447Z,15.93
2018-06-05T09:17:40.789Z,15.53
2018-06-05T09:20:09.229Z,15.53
2018-06-05T09:22:37.562Z,15.47
2018-06-05T09:25:06.691Z,14.47
2018-06-05T09:27:35.038Z,14.33
2018-06-05T09:30:04.171Z,15.47
2018-06-05T09:32:32.523Z,14.20
2018-06-05T09:35:01.637Z,14.77
2018-06-05T09:37:29.994Z,15.33
2018-06-05T09:39:59.120Z,15.43
2018-06-05T09:42:27.494Z,15.57
2018-06-05T09:44:55.843Z,16.00
2018-06-05T09:47:24.953Z,15.20
2018-06-05T09:49:53.310Z,14.50
2018-06-05T09:52:22.519Z,22.23
2018-06-05T09:54:50.970Z,15.17
2018-06-05T09:57:19.294Z,15.33
2018-06-05T09:59:47.663Z,15.43
2018-06-05T10:02:16.765Z,14.03
2018-06-05T10:04:46.062Z,13.27
2018-06-05T10:07:14.571Z,13.00
2018-06-05T10:09:42.922Z,13.73
2018-06-05T10:12:11.345Z,15.53
2018-06-05T10:14:39.710Z,13.62
2018-06-05T10:17:08.150Z,17.50
2018-06-05T10:19:36.575Z,16.00
2018-06-05T10:22:04.925Z,16.40
2018-06-05T10:24:34.055Z,18.33
2018-06-05T10:27:02.427Z,18.20
2018-06-05T10:29:30.780Z,15.48
2018-06-05T10:31:59.119Z,14.80
2018-06-05T10:34:27.511Z,15.73
2018-06-05T10:36:55.875Z,22.58
2018-06-05T10:39:24.325Z,18.12
2018-06-05T10:41:52.765Z,15.02
2018-06-05T10:44:21.049Z,16.77
2018-06-05T10:46:50.328Z,16.58
2018-06-05T10:49:18.697Z,15.93
2018-06-05T10:51:47.112Z,16.15
2018-06-05T10:54:16.283Z,17.60
2018-06-05T10:56:44.718Z,16.23
2018-06-05T10:59:13.318Z,15.88
2018-06-05T11:01:41.646Z,16.65
2018-06-05T11:04:10.770Z,16.92
2018-06-05T11:06:39.154Z,16.08
2018-06-05T11:09:07.548Z,15.18
2018-06-05T11:11:35.897Z,16.05
2018-06-05T11:14:04.302Z,15.25
2018-06-05T11:16:32.655Z,15.10
2018-06-05T11:19:01.009Z,15.75
2018-06-05T11:21:30.149Z,14.10
2018-06-05T11:23:58.632Z,15.30
2018-06-05T11:26:27.083Z,14.00
2018-06-05T11:28:56.204Z,13.13
2018-06-05T11:31:24.554Z,13.00
2018-06-05T11:33:53.663Z,13.65
2018-06-05T11:36:22.045Z,13.90
2018-06-05T11:38:50.385Z,14.07
2018-06-05T11:41:18.821Z,12.15
2018-06-05T11:43:47.179Z,13.70
2018-06-05T11:46:15.692Z,12.13
2018-06-05T11:48:44.994Z,13.25
2018-06-05T11:51:13.381Z,11.43
2018-06-05T11:53:41.725Z,11.18
2018-06-05T11:56:10.128Z,11.65
2018-06-05T11:58:38.504Z,10.50
2018-06-05T12:01:06.856Z,10.38
2018-06-05T12:03:35.280Z,10.77
2018-06-05T12:06:03.677Z,12.52
2018-06-05T12:08:32.021Z,12.20
2018-06-05T12:11:00.379Z,10.18
2018-06-05T12:13:28.728Z,11.38
2018-06-05T12:15:57.078Z,12.45
2018-06-05T12:18:25.491Z,11.90
2018-06-05T12:20:53.930Z,10.82
2018-06-05T12:23:22.380Z,13.32
2018-06-05T12:25:51.590Z,12.25
2018-06-05T12:28:19.934Z,12.60
2018-06-05T12:30:49.066Z,10.73
2018-06-05T12:33:17.453Z,11.25
2018-06-05T12:35:45.937Z,11.70
2018-06-05T12:38:14.273Z,11.40
2018-06-05T12:40:43.397Z,12.02
2018-06-05T12:43:11.740Z,12.27
2018-06-05T12:45:40.904Z,11.75
2018-06-05T12:48:09.322Z,11.35
2018-06-05T12:50:38.463Z,12.52
2018-06-05T12:53:06.830Z,10.95
2018-06-05T12:55:35.189Z,12.00
2018-06-05T12:58:04.388Z,11.85
2018-06-05T13:00:32.672Z,11.07
2018-06-05T13:03:01.173Z,10.88
2018-06-05T13:05:29.518Z,8.85
2018-06-05T13:07:58.680Z,10.10
2018-06-05T13:10:27.174Z,11.00
2018-06-05T13:12:55.826Z,10.00
2018-06-05T13:15:24.201Z,9.65
2018-06-05T13:17:52.785Z,11.20
2018-06-05T13:20:21.126Z,9.20
2018-06-05T13:22:50.305Z,8.45
2018-06-05T13:25:18.617Z,8.48
2018-06-05T13:27:47.108Z,13.30
2018-06-05T13:30:16.196Z,10.10
2018-06-05T13:32:44.594Z,9.60
2018-06-05T13:35:12.987Z,10.80
2018-06-05T13:37:41.388Z,10.75
2018-06-05T13:40:09.847Z,12.18
2018-06-05T13:42:38.243Z,13.48
2018-06-05T13:45:06.599Z,10.75
2018-06-05T13:47:34.961Z,9.18
2018-06-05T13:50:03.509Z,10.43
2018-06-05T13:52:31.928Z,8.88
2018-06-05T13:55:00.369Z,8.20
2018-06-05T13:57:28.827Z,7.72
2018-06-05T13:59:57.224Z,6.85
2018-06-05T14:02:25.565Z,6.75
2018-06-05T14:04:53.942Z,7.47
2018-06-05T14:07:22.330Z,7.03
2018-06-05T14:09:50.805Z,7.00
2018-06-05T14:12:19.225Z,7.62
2018-06-05T14:14:47.724Z,7.93
2018-06-05T14:17:16.160Z,8.35
2018-06-05T14:19:44.502Z,9.48
2018-06-05T14:22:12.945Z,6.72
2018-06-05T14:24:41.313Z,9.05
2018-06-05T14:27:10.018Z,9.55
2018-06-05T14:29:38.366Z,7.87
2018-06-05T14:32:06.925Z,7.62
2018-06-05T14:34:35.349Z,7.95
2018-06-05T14:37:03.830Z,7.40
2018-06-05T14:39:32.176Z,6.82
2018-06-05T14:42:03.574Z,6.95
2018-06-05T14:44:31.984Z,6.72
2018-06-05T14:47:01.300Z,5.37
2018-06-05T14:49:29.661Z,5.70
2018-06-05T14:51:58.074Z,6.00
2018-06-05T14:54:27.030Z,5.80
2018-06-05T14:56:56.179Z,5.40
2018-06-05T14:59:24.597Z,5.62
2018-06-05T15:01:53.725Z,5.12
2018-06-05T15:04:22.087Z,5.25
2018-06-05T15:06:50.485Z,4.87
2018-06-05T15:09:18.865Z,4.30
2018-06-05T15:11:47.259Z,5.82
2018-06-05T15:14:15.789Z,5.10
2018-06-05T15:16:44.123Z,5.57
2018-06-05T15:19:12.463Z,5.70
2018-06-05T15:21:41.014Z,5.55
2018-06-05T15:24:09.437Z,5.85
2018-06-05T15:26:37.845Z,5.37
2018-06-05T15:29:06.239Z,5.80
2018-06-05T15:31:34.641Z,5.57
2018-06-05T15:34:03.062Z,5.82
2018-06-05T15:36:31.339Z,5.50
2018-06-05T15:38:59.690Z,5.65
2018-06-05T15:41:28.794Z,5.93
2018-06-05T15:43:57.923Z,5.28
2018-06-05T15:46:26.259Z,4.82
2018-06-05T15:48:54.612Z,5.32
2018-06-05T15:51:23.014Z,4.60
2018-06-05T15:53:52.130Z,5.12
2018-06-05T15:56:20.570Z,4.75
2018-06-05T15:58:48.935Z,5.12
2018-06-05T16:01:17.302Z,4.72
2018-06-05T16:03:45.663Z,5.10
2018-06-05T16:06:14.008Z,5.30
2018-06-05T16:08:43.130Z,4.70
2018-06-05T16:11:11.648Z,5.47
2018-06-05T16:13:40.000Z,11.93
2018-06-05T16:16:08.393Z,9.15
2018-06-05T16:18:36.866Z,7.60
2018-06-05T16:21:05.217Z,8.43
2018-06-05T16:23:34.409Z,8.90
2018-06-05T16:26:02.755Z,7.57
2018-06-05T16:28:31.155Z,8.70
2018-06-05T16:30:59.482Z,8.23
2018-06-05T16:33:27.890Z,7.43
2018-06-05T16:35:56.954Z,6.35
2018-06-05T16:38:25.322Z,6.12
2018-06-05T16:40:54.416Z,6.93
2018-06-05T16:43:22.758Z,7.20
2018-06-05T16:45:51.252Z,6.62
2018-06-05T16:48:19.683Z,6.70
2018-06-05T16:50:48.172Z,7.18
2018-06-05T16:53:16.561Z,7.43
2018-06-05T16:55:44.910Z,6.12
2018-06-05T16:58:13.258Z,6.43
2018-06-05T17:00:42.400Z,5.70
2018-06-05T17:03:10.755Z,6.75
2018-06-05T17:05:39.142Z,6.10
2018-06-05T17:08:07.507Z,5.87
2018-06-05T17:10:35.841Z,5.95
2018-06-05T17:13:04.316Z,6.25
2018-06-05T17:15:32.691Z,6.15
2018-06-05T17:18:01.063Z,6.53
2018-06-05T17:20:29.416Z,7.32
2018-06-05T17:22:57.804Z,9.05
2018-06-05T17:25:26.143Z,9.80
2018-06-05T17:27:55.271Z,8.55
2018-06-05T17:30:23.777Z,8.88
2018-06-05T17:32:52.146Z,7.72
2018-06-05T17:35:20.511Z,9.07
2018-06-05T17:37:49.031Z,8.77
2018-06-05T17:40:17.381Z,9.82
2018-06-05T17:42:45.753Z,9.68
2018-06-05T17:45:14.190Z,9.32
2018-06-05T17:47:42.646Z,9.13
2018-06-05T17:50:11.099Z,9.80
2018-06-05T17:52:39.451Z,11.18
2018-06-05T17:55:08.678Z,10.75
2018-06-05T17:57:37.054Z,9.80
2018-06-05T18:00:05.414Z,9.77
2018-06-05T18:02:34.551Z,10.40
2018-06-05T18:05:03.435Z,10.15
2018-06-05T18:07:31.780Z,11.25
2018-06-05T18:10:00.200Z,10.73
2018-06-05T18:12:28.637Z,10.15
2018-06-05T18:14:57.769Z,10.50
2018-06-05T18:17:26.174Z,10.77
2018-06-05T18:19:54.519Z,11.75
2018-06-05T18:22:23.120Z,10.90
2018-06-05T18:24:51.474Z,11.07
2018-06-05T18:27:19.905Z,10.30
2018-06-05T18:29:48.346Z,9.93
2018-06-05T18:32:16.708Z,9.68
2018-06-05T18:34:45.292Z,10.57
2018-06-05T18:37:14.421Z,11.10
2018-06-05T18:39:42.758Z,10.65
2018-06-05T18:42:11.873Z,10.73
2018-06-05T18:44:40.366Z,10.57
2018-06-05T18:47:08.749Z,11.32
2018-06-05T18:49:37.133Z,10.77
2018-06-05T18:52:05.515Z,11.45
2018-06-05T18:54:33.867Z,11.27
2018-06-05T18:57:02.247Z,10.73
2018-06-05T18:59:30.740Z,11.90
2018-06-05T19:01:59.159Z,11.30
2018-06-05T19:04:27.567Z,12.48
2018-06-05T19:06:56.680Z,12.20
2018-06-05T19:09:25.165Z,11.15
2018-06-05T19:11:53.522Z,12.10
2018-06-05T19:14:22.993Z,11.20
2018-06-05T19:16:51.356Z,11.77
2018-06-05T19:19:19.814Z,10.88
2018-06-05T19:21:48.192Z,10.45
2018-06-05T19:24:16.704Z,13.20
2018-06-05T19:26:45.392Z,12.30
2018-06-05T19:29:13.809Z,11.88
2018-06-05T19:31:42.090Z,13.05
2018-06-05T19:34:11.253Z,11.43
2018-06-05T19:36:39.620Z,12.85
2018-06-05T19:39:07.990Z,11.32
2018-06-05T19:41:36.344Z,12.43
2018-06-05T19:44:04.886Z,11.98
2018-06-05T19:46:34.163Z,12.63
2018-06-05T19:49:02.555Z,12.82
2018-06-05T19:51:30.931Z,13.13
2018-06-05T19:53:59.302Z,13.40
2018-06-05T19:56:27.713Z,14.18
2018-06-05T19:58:56.071Z,14.90
2018-06-05T20:01:24.641Z,15.48
2018-06-05T20:03:52.993Z,16.50
2018-06-05T20:06:21.363Z,15.25
2018-06-05T20:08:49.716Z,14.75
2018-06-05T20:11:18.111Z,32.67
2018-06-05T20:13:47.264Z,29.23
2018-06-05T20:16:15.639Z,15.97
2018-06-05T20:18:43.999Z,15.00
2018-06-05T20:21:12.594Z,14.93
2018-06-05T20:23:40.982Z,15.00
2018-06-05T20:26:09.359Z,14.65
2018-06-05T20:28:37.802Z,14.57
2018-06-05T20:31:06.267Z,15.15
2018-06-05T20:33:35.394Z,14.90
2018-06-05T20:36:03.806Z,14.57
2018-06-05T20:38:32.292Z,15.23
2018-06-05T20:41:00.663Z,14.13
2018-06-05T20:43:29.017Z,19.67
2018-06-05T20:45:57.392Z,17.03
2018-06-05T20:48:25.786Z,15.13
2018-06-05T20:50:54.277Z,15.00
2018-06-05T20:53:22.632Z,14.77
2018-06-05T20:55:51.002Z,15.03
2018-06-05T20:58:19.356Z,17.00
2018-06-05T21:00:48.482Z,14.27
2018-06-05T21:03:16.894Z,14.60
2018-06-05T21:05:45.270Z,15.77
2018-06-05T21:08:13.615Z,16.07
2018-06-05T21:10:41.992Z,15.03
2018-06-05T21:13:11.235Z,15.03
2018-06-05T21:15:39.627Z,15.20
2018-06-05T21:18:08.195Z,15.03
2018-06-05T21:20:36.557Z,16.07
2018-06-05T21:23:04.948Z,16.73
2018-06-05T21:25:33.439Z,16.20
2018-06-05T21:28:01.903Z,17.23
2018-06-05T21:30:30.391Z,50.20
2018-06-05T21:32:58.733Z,21.30
2018-06-05T21:35:27.147Z,17.53
2018-06-05T21:37:55.492Z,17.37
2018-06-05T21:40:24.642Z,15.60
2018-06-05T21:42:53.009Z,17.13
2018-06-05T21:45:21.380Z,15.87
2018-06-05T21:47:49.935Z,16.50
2018-06-05T21:50:18.270Z,15.33
2018-06-05T21:52:46.628Z,15.27
2018-06-05T21:55:14.992Z,14.07
2018-06-05T21:57:43.370Z,13.17
2018-06-05T22:00:11.713Z,14.60
2018-06-05T22:02:40.065Z,13.73
2018-06-05T22:05:08.435Z,12.70
2018-06-05T22:07:36.815Z,12.80
2018-06-05T22:10:05.159Z,13.33
2018-06-05T22:12:33.538Z,14.07
2018-06-05T22:15:01.906Z,14.03
2018-06-05T22:17:31.014Z,12.80
2018-06-05T22:19:59.393Z,13.77
2018-06-05T22:22:27.808Z,14.47
2018-06-05T22:24:56.152Z,13.73
2018-06-05T22:27:24.520Z,14.07
2018-06-05T22:29:52.968Z,73.27
2018-06-05T22:32:21.862Z,30.60
2018-06-05T22:34:50.214Z,14.67
2018-06-05T22:37:18.742Z,13.03
2018-06-05T22:39:47.915Z,13.60
2018-06-05T22:42:16.395Z,13.60
2018-06-05T22:44:44.745Z,13.67
2018-06-05T22:47:13.172Z,12.77
2018-06-05T22:49:42.500Z,13.30
2018-06-05T22:52:11.127Z,12.97
2018-06-05T22:54:39.468Z,12.87
2018-06-05T22:57:07.846Z,13.30
2018-06-05T22:59:36.554Z,12.97
2018-06-05T23:02:05.779Z,12.23
2018-06-05T23:04:34.173Z,12.63
2018-06-05T23:07:02.654Z,12.77
2018-06-05T23:09:31.054Z,12.87
2018-06-05T23:12:00.643Z,11.60
2018-06-05T23:14:29.445Z,12.00
2018-06-05T23:16:58.578Z,12.23
2018-06-05T23:19:27.328Z,11.53
2018-06-05T23:21:55.814Z,12.10
2018-06-05T23:24:24.960Z,12.13
2018-06-05T23:26:53.465Z,12.00
2018-06-05T23:29:22.154Z,12.10
2018-06-05T23:31:50.522Z,12.60
2018-06-05T23:34:19.130Z,12.03
2018-06-05T23:36:48.713Z,12.10
2018-06-05T23:39:17.276Z,11.77
2018-06-05T23:41:45.694Z,12.97
2018-06-05T23:44:14.782Z,13.57
2018-06-05T23:46:43.147Z,13.63
2018-06-05T23:49:11.907Z,13.73
2018-06-05T23:51:40.733Z,13.33
2018-06-05T23:54:10.528Z,14.37
2018-06-05T23:56:39.005Z,14.13
2018-06-05T23:59:07.445Z,13.37
